createdAt,value
2018-08-08T00:00:07.291Z,21.00
2018-08-08T00:02:35.913Z,20.90
2018-08-08T00:05:04.644Z,20.90
2018-08-08T00:07:33.465Z,21.00
2018-08-08T00:10:02.137Z,21.00
2018-08-08T00:12:30.787Z,21.00
2018-08-08T00:14:59.500Z,21.00
2018-08-08T00:17:28.172Z,21.00
2018-08-08T00:19:56.884Z,21.00
2018-08-08T00:22:26.724Z,20.90
2018-08-08T00:24:55.357Z,20.90
2018-08-08T00:27:24.073Z,21.00
2018-08-08T00:29:52.797Z,21.00
2018-08-08T00:32:21.432Z,21.00
2018-08-08T00:34:50.125Z,21.00
2018-08-08T00:37:18.853Z,20.90
2018-08-08T00:39:47.592Z,20.90
2018-08-08T00:42:16.336Z,20.90
2018-08-08T00:44:45.045Z,20.90
2018-08-08T00:47:13.806Z,20.90
2018-08-08T00:49:42.447Z,20.90
2018-08-08T00:52:11.157Z,20.80
2018-08-08T00:54:39.795Z,20.80
2018-08-08T00:57:08.461Z,20.80
2018-08-08T00:59:37.080Z,20.70
2018-08-08T01:02:06.009Z,20.70
2018-08-08T01:04:34.794Z,20.70
2018-08-08T01:07:03.853Z,20.60
2018-08-08T01:09:32.500Z,20.50
2018-08-08T01:12:01.157Z,20.60
2018-08-08T01:14:30.093Z,20.50
2018-08-08T01:16:58.747Z,20.40
2018-08-08T01:19:27.450Z,20.30
2018-08-08T01:21:56.196Z,20.20
2018-08-08T01:24:24.920Z,20.10
2018-08-08T01:26:53.620Z,20.10
2018-08-08T01:29:22.264Z,20.10
2018-08-08T01:31:50.874Z,20.10
2018-08-08T01:34:19.561Z,20.10
2018-08-08T01:36:48.329Z,20.00
2018-08-08T01:39:17.032Z,19.90
2018-08-08T01:41:46.067Z,19.90
2018-08-08T01:44:14.817Z,19.90
2018-08-08T01:46:43.480Z,19.90
2018-08-08T01:49:12.176Z,19.90
2018-08-08T01:51:40.900Z,19.90
2018-08-08T01:54:09.569Z,20.00
2018-08-08T01:56:38.316Z,20.00
2018-08-08T01:59:07.562Z,20.00
2018-08-08T02:01:36.244Z,19.90
2018-08-08T02:04:05.043Z,19.90
2018-08-08T02:06:33.660Z,19.90
2018-08-08T02:09:02.440Z,19.90
2018-08-08T02:11:31.160Z,19.80
2018-08-08T02:13:59.860Z,19.80
2018-08-08T02:16:28.516Z,19.80
2018-08-08T02:18:57.217Z,19.80
2018-08-08T02:21:26.140Z,19.70
2018-08-08T02:23:54.785Z,19.80
2018-08-08T02:26:23.448Z,19.70
2018-08-08T02:28:52.163Z,19.70
2018-08-08T02:31:20.786Z,19.70
2018-08-08T02:33:49.543Z,19.60
2018-08-08T02:36:18.237Z,19.60
2018-08-08T02:38:47.005Z,19.60
2018-08-08T02:41:15.655Z,19.60
2018-08-08T02:43:44.363Z,19.60
2018-08-08T02:46:13.136Z,19.50
2018-08-08T02:48:41.936Z,19.50
2018-08-08T02:51:10.626Z,19.50
2018-08-08T02:53:39.375Z,19.50
2018-08-08T02:56:08.061Z,19.60
2018-08-08T02:58:36.794Z,19.60
2018-08-08T03:01:05.676Z,19.60
2018-08-08T03:03:34.352Z,19.60
2018-08-08T03:06:03.125Z,19.60
2018-08-08T03:08:31.851Z,19.50
2018-08-08T03:11:00.572Z,19.50
2018-08-08T03:13:29.700Z,19.50
2018-08-08T03:15:58.357Z,19.50
2018-08-08T03:18:27.129Z,19.50
2018-08-08T03:20:55.772Z,19.50
2018-08-08T03:23:24.533Z,19.40
2018-08-08T03:25:53.206Z,19.40
2018-08-08T03:28:22.208Z,19.40
2018-08-08T03:30:50.909Z,19.50
2018-08-08T03:33:19.588Z,19.50
2018-08-08T03:35:48.287Z,19.50
2018-08-08T03:38:16.965Z,19.60
2018-08-08T03:40:45.664Z,19.70
2018-08-08T03:43:14.332Z,20.40
2018-08-08T03:45:43.013Z,21.10
2018-08-08T03:48:11.756Z,21.70
2018-08-08T03:50:40.505Z,22.30
2018-08-08T03:53:09.313Z,22.60
2018-08-08T03:55:38.084Z,22.80
2018-08-08T03:58:06.849Z,23.00
2018-08-08T04:00:35.547Z,23.10
2018-08-08T04:03:04.717Z,23.40
2018-08-08T04:05:33.399Z,23.50
2018-08-08T04:08:02.099Z,23.70
2018-08-08T04:10:30.813Z,23.80
2018-08-08T04:12:59.480Z,23.80
2018-08-08T04:15:28.272Z,23.80
2018-08-08T04:17:56.943Z,23.80
2018-08-08T04:20:25.665Z,23.90
2018-08-08T04:22:54.428Z,23.80
2018-08-08T04:25:25.669Z,23.80
2018-08-08T04:27:54.661Z,23.80
2018-08-08T04:30:23.420Z,23.70
2018-08-08T04:32:52.306Z,23.70
2018-08-08T04:35:21.041Z,23.70
2018-08-08T04:37:50.100Z,23.60
2018-08-08T04:40:19.965Z,23.60
2018-08-08T04:42:49.853Z,23.60
2018-08-08T04:45:19.155Z,23.60
2018-08-08T04:47:48.468Z,23.50
2018-08-08T04:50:17.248Z,23.50
2018-08-08T04:52:46.226Z,23.50
2018-08-08T04:55:16.219Z,23.40
2018-08-08T04:57:46.915Z,23.50
2018-08-08T05:00:17.482Z,23.40
2018-08-08T05:02:46.597Z,23.40
2018-08-08T05:05:15.705Z,23.30
2018-08-08T05:07:44.353Z,23.30
2018-08-08T05:10:13.240Z,23.30
2018-08-08T05:12:42.630Z,23.30
2018-08-08T05:15:14.725Z,23.40
2018-08-08T05:17:44.181Z,23.40
2018-08-08T05:20:14.070Z,23.40
2018-08-08T05:22:43.615Z,23.40
2018-08-08T05:25:12.499Z,23.40
2018-08-08T05:27:41.272Z,23.50
2018-08-08T05:30:14.949Z,23.50
2018-08-08T05:32:43.693Z,23.70
2018-08-08T05:35:13.540Z,23.80
2018-08-08T05:37:42.602Z,23.80
2018-08-08T05:40:17.268Z,23.90
2018-08-08T05:42:46.815Z,23.90
2018-08-08T05:45:15.941Z,23.90
2018-08-08T05:47:46.168Z,23.80
2018-08-08T05:50:14.941Z,23.70
2018-08-08T05:52:44.034Z,23.70
2018-08-08T05:55:14.348Z,23.80
2018-08-08T05:57:43.119Z,23.70
2018-08-08T06:00:18.162Z,23.80
2018-08-08T06:02:46.929Z,23.90
2018-08-08T06:05:16.067Z,24.10
2018-08-08T06:07:45.072Z,24.30
2018-08-08T06:10:13.956Z,24.50
2018-08-08T06:12:42.999Z,24.80
2018-08-08T06:15:14.226Z,25.00
2018-08-08T06:17:42.970Z,25.30
2018-08-08T06:20:15.526Z,25.40
2018-08-08T06:22:45.479Z,25.60
2018-08-08T06:25:14.352Z,25.70
2018-08-08T06:27:43.860Z,25.80
2018-08-08T06:30:25.691Z,25.90
2018-08-08T06:32:55.622Z,26.00
2018-08-08T06:35:26.503Z,26.10
2018-08-08T06:37:55.996Z,26.20
2018-08-08T06:40:24.676Z,26.20
2018-08-08T06:42:54.388Z,26.20
2018-08-08T06:45:28.649Z,26.10
2018-08-08T06:47:58.054Z,26.10
2018-08-08T06:50:28.222Z,26.00
2018-08-08T06:52:57.631Z,26.00
2018-08-08T06:55:27.199Z,26.10
2018-08-08T06:57:56.190Z,26.10
2018-08-08T07:00:29.401Z,26.20
2018-08-08T07:02:58.588Z,26.30
2018-08-08T07:05:27.777Z,26.40
2018-08-08T07:07:57.304Z,26.30
2018-08-08T07:10:26.320Z,26.30
2018-08-08T07:12:55.157Z,26.40
2018-08-08T07:15:23.977Z,26.70
2018-08-08T07:17:52.708Z,27.10
2018-08-08T07:20:21.524Z,27.70
2018-08-08T07:22:50.333Z,28.20
2018-08-08T07:25:19.653Z,28.70
2018-08-08T07:27:49.082Z,28.90
2018-08-08T07:30:19.200Z,29.20
2018-08-08T07:32:48.637Z,28.90
2018-08-08T07:35:18.220Z,28.60
2018-08-08T07:37:47.781Z,28.80
2018-08-08T07:40:17.803Z,28.80
2018-08-08T07:42:46.456Z,29.10
2018-08-08T07:45:21.058Z,29.30
2018-08-08T07:47:50.240Z,29.30
2018-08-08T07:50:19.232Z,29.80
2018-08-08T07:52:48.272Z,30.10
2018-08-08T07:55:18.136Z,30.20
2018-08-08T07:57:46.925Z,30.40
2018-08-08T08:00:21.164Z,30.70
2018-08-08T08:02:50.204Z,31.00
2018-08-08T08:05:19.798Z,31.50
2018-08-08T08:07:49.541Z,32.10
2018-08-08T08:10:18.364Z,32.10
2018-08-08T08:12:47.478Z,32.00
2018-08-08T08:15:16.113Z,32.00
2018-08-08T08:17:44.899Z,32.50
2018-08-08T08:20:14.690Z,32.70
2018-08-08T08:22:44.717Z,32.60
2018-08-08T08:25:13.368Z,32.70
2018-08-08T08:27:42.308Z,32.70
2018-08-08T08:30:13.273Z,32.90
2018-08-08T08:32:42.201Z,32.70
2018-08-08T08:35:10.978Z,32.70
2018-08-08T08:37:39.912Z,33.00
2018-08-08T08:40:10.483Z,32.70
2018-08-08T08:42:39.673Z,32.20
2018-08-08T08:45:08.376Z,31.70
2018-08-08T08:47:37.136Z,31.30
2018-08-08T08:50:06.398Z,30.90
2018-08-08T08:52:35.143Z,30.90
2018-08-08T08:55:04.120Z,31.30
2018-08-08T08:57:33.056Z,31.80
2018-08-08T09:00:01.672Z,31.80
2018-08-08T09:02:30.432Z,31.90
2018-08-08T09:04:59.116Z,31.90
2018-08-08T09:07:28.060Z,31.40
2018-08-08T09:09:56.724Z,31.30
2018-08-08T09:12:25.344Z,31.40
2018-08-08T09:14:54.319Z,31.40
2018-08-08T09:17:23.383Z,31.30
2018-08-08T09:19:52.021Z,31.20
2018-08-08T09:22:21.120Z,31.20
2018-08-08T09:24:50.464Z,31.20
2018-08-08T09:27:19.417Z,31.20
2018-08-08T09:29:53.296Z,31.30
2018-08-08T09:32:22.097Z,31.10
2018-08-08T09:34:50.785Z,30.70
2018-08-08T09:37:21.576Z,30.60
2018-08-08T09:39:50.273Z,30.70
2018-08-08T09:42:19.219Z,31.10
2018-08-08T09:44:47.905Z,31.60
2018-08-08T09:47:16.684Z,31.80
2018-08-08T09:49:45.350Z,31.80
2018-08-08T09:52:14.020Z,31.70
2018-08-08T09:54:42.857Z,31.70
2018-08-08T09:57:11.581Z,32.00
2018-08-08T09:59:40.600Z,32.10
2018-08-08T10:02:14.393Z,32.40
2018-08-08T10:04:43.797Z,32.70
2018-08-08T10:07:12.540Z,33.10
2018-08-08T10:09:41.507Z,33.30
2018-08-08T10:12:10.254Z,33.10
2018-08-08T10:14:39.185Z,33.00
2018-08-08T10:17:08.233Z,32.80
2018-08-08T10:19:38.316Z,32.70
2018-08-08T10:22:07.110Z,32.70
2018-08-08T10:24:35.698Z,32.80
2018-08-08T10:27:04.422Z,32.90
2018-08-08T10:29:33.266Z,32.90
2018-08-08T10:32:02.194Z,32.50
2018-08-08T10:34:30.969Z,32.50
2018-08-08T10:36:59.632Z,32.90
2018-08-08T10:39:34.029Z,33.00
2018-08-08T10:42:03.154Z,33.20
2018-08-08T10:44:31.794Z,33.10
2018-08-08T10:47:00.753Z,33.10
2018-08-08T10:49:29.409Z,33.30
2018-08-08T10:51:58.116Z,33.40
2018-08-08T10:54:26.793Z,32.90
2018-08-08T10:56:55.479Z,32.60
2018-08-08T10:59:24.183Z,32.00
2018-08-08T11:01:52.857Z,31.90
2018-08-08T11:04:21.500Z,31.90
2018-08-08T11:06:50.185Z,31.90
2018-08-08T11:09:18.916Z,31.80
2018-08-08T11:11:47.802Z,31.60
2018-08-08T11:14:16.464Z,31.70
2018-08-08T11:16:45.122Z,31.70
2018-08-08T11:19:13.740Z,31.50
2018-08-08T11:21:42.381Z,31.60
2018-08-08T11:24:11.004Z,31.80
2018-08-08T11:26:40.097Z,31.90
2018-08-08T11:29:09.076Z,32.40
2018-08-08T11:31:38.327Z,32.70
2018-08-08T11:34:07.150Z,32.80
2018-08-08T11:36:35.770Z,33.20
2018-08-08T11:39:06.133Z,33.60
2018-08-08T11:41:34.852Z,33.90
2018-08-08T11:44:03.522Z,33.90
2018-08-08T11:46:32.345Z,33.50
2018-08-08T11:49:00.912Z,33.10
2018-08-08T11:51:30.172Z,33.50
2018-08-08T11:53:58.977Z,33.60
2018-08-08T11:56:30.221Z,33.50
2018-08-08T12:01:59.628Z,33.20
2018-08-08T12:04:28.257Z,33.20
2018-08-08T12:06:57.218Z,33.40
2018-08-08T12:09:32.096Z,33.50
2018-08-08T12:12:00.859Z,33.60
2018-08-08T12:14:29.516Z,33.20
2018-08-08T12:16:58.230Z,33.20
2018-08-08T12:19:40.616Z,33.00
2018-08-08T12:22:14.540Z,33.20
2018-08-08T12:24:43.316Z,33.00
2018-08-08T12:27:11.944Z,32.90
2018-08-08T12:29:40.845Z,32.90
2018-08-08T12:32:09.712Z,33.10
2018-08-08T12:34:38.673Z,33.20
2018-08-08T12:37:07.650Z,33.40
2018-08-08T12:39:36.501Z,33.30
2018-08-08T12:42:05.304Z,33.70
2018-08-08T12:44:34.082Z,33.60
2018-08-08T12:47:03.286Z,33.60
2018-08-08T12:49:33.730Z,33.70
2018-08-08T12:52:02.531Z,33.30
2018-08-08T12:54:31.250Z,33.30
2018-08-08T12:56:59.986Z,33.70
2018-08-08T12:59:28.939Z,34.10
2018-08-08T13:01:57.737Z,34.40
2018-08-08T13:04:26.573Z,34.20
2018-08-08T13:06:55.504Z,33.50
2018-08-08T13:09:24.148Z,33.30
2018-08-08T13:11:52.941Z,33.20
2018-08-08T13:14:21.783Z,33.30
2018-08-08T13:16:50.491Z,33.80
2018-08-08T13:19:19.302Z,34.30
2018-08-08T13:21:47.897Z,34.50
2018-08-08T13:24:17.053Z,34.50
2018-08-08T13:26:45.656Z,34.30
2018-08-08T13:29:14.324Z,34.10
2018-08-08T13:31:43.280Z,34.10
2018-08-08T13:34:12.265Z,34.40
2018-08-08T13:36:41.543Z,34.70
2018-08-08T13:39:13.112Z,35.10
2018-08-08T13:41:42.041Z,35.40
2018-08-08T13:44:10.757Z,35.60
2018-08-08T13:46:39.427Z,35.60
2018-08-08T13:49:08.208Z,36.00
2018-08-08T13:51:36.921Z,36.00
2018-08-08T13:54:06.061Z,36.40
2018-08-08T13:56:34.975Z,36.40
2018-08-08T13:59:03.706Z,36.30
2018-08-08T14:01:32.474Z,35.60
2018-08-08T14:04:01.139Z,35.30
2018-08-08T14:06:29.863Z,35.50
2018-08-08T14:08:58.569Z,35.30
2018-08-08T14:11:27.312Z,35.30
2018-08-08T14:13:56.050Z,35.70
2018-08-08T14:16:24.692Z,36.60
2018-08-08T14:18:53.508Z,38.30
2018-08-08T14:21:22.145Z,39.30
2018-08-08T14:23:50.850Z,38.30
2018-08-08T14:26:19.857Z,36.90
2018-08-08T14:31:44.009Z,35.50
2018-08-08T14:34:12.676Z,34.40
2018-08-08T14:36:41.322Z,34.00
2018-08-08T14:39:11.434Z,33.00
2018-08-08T14:41:51.652Z,32.40
2018-08-08T14:44:20.401Z,32.20
2018-08-08T14:46:49.216Z,32.00
2018-08-08T14:49:17.989Z,31.90
2018-08-08T14:51:47.814Z,31.70
2018-08-08T14:54:16.499Z,31.40
2018-08-08T14:56:45.219Z,30.90
2018-08-08T14:59:13.925Z,30.80
2018-08-08T15:01:42.861Z,30.70
2018-08-08T15:04:11.497Z,30.60
2018-08-08T15:06:40.157Z,30.70
2018-08-08T15:09:11.595Z,30.90
2018-08-08T15:11:40.240Z,31.60
2018-08-08T15:14:09.164Z,32.10
2018-08-08T15:16:38.117Z,33.10
2018-08-08T15:19:06.769Z,34.50
2018-08-08T15:21:35.444Z,36.00
2018-08-08T15:24:04.213Z,37.40
2018-08-08T15:26:33.107Z,37.30
2018-08-08T15:29:01.793Z,36.70
2018-08-08T15:31:30.900Z,36.00
2018-08-08T15:33:59.856Z,35.60
2018-08-08T15:36:28.643Z,35.40
2018-08-08T15:38:57.309Z,35.70
2018-08-08T15:41:26.469Z,36.60
2018-08-08T15:43:55.211Z,36.70
2018-08-08T15:46:23.912Z,36.40
2018-08-08T15:48:52.950Z,36.10
2018-08-08T15:51:21.976Z,36.20
2018-08-08T15:53:50.845Z,36.50
2018-08-08T15:56:19.556Z,37.00
2018-08-08T15:58:48.308Z,37.10
2018-08-08T16:01:17.046Z,37.60
2018-08-08T16:03:46.024Z,38.20
2018-08-08T16:06:14.652Z,39.50
2018-08-08T16:08:43.690Z,40.10
2018-08-08T16:11:12.408Z,39.70
2018-08-08T16:13:41.142Z,39.10
2018-08-08T16:16:09.800Z,37.80
2018-08-08T16:18:38.578Z,36.90
2018-08-08T16:21:07.545Z,36.50
2018-08-08T16:23:36.229Z,36.00
2018-08-08T16:26:04.929Z,35.30
2018-08-08T16:28:34.001Z,35.10
2018-08-08T16:31:02.960Z,35.10
2018-08-08T16:33:32.096Z,35.50
2018-08-08T16:36:00.933Z,35.90
2018-08-08T16:38:29.649Z,35.90
2018-08-08T16:40:58.626Z,35.80
2018-08-08T16:43:27.379Z,35.70
2018-08-08T16:45:56.065Z,35.80
2018-08-08T16:48:25.110Z,36.30
2018-08-08T16:50:53.892Z,37.30
2018-08-08T16:53:22.660Z,38.10
2018-08-08T16:55:51.363Z,38.20
2018-08-08T16:58:20.043Z,37.70
2018-08-08T17:00:48.780Z,36.50
2018-08-08T17:03:17.382Z,35.60
2018-08-08T17:05:46.148Z,35.20
2018-08-08T17:08:14.828Z,35.00
2018-08-08T17:10:43.676Z,35.10
2018-08-08T17:13:12.669Z,35.40
2018-08-08T17:15:41.276Z,35.50
2018-08-08T17:18:10.022Z,35.50
2018-08-08T17:20:38.853Z,35.50
2018-08-08T17:23:07.645Z,35.00
2018-08-08T17:25:36.295Z,34.20
2018-08-08T17:28:05.017Z,33.30
2018-08-08T17:30:33.665Z,32.30
2018-08-08T17:33:02.484Z,31.80
2018-08-08T17:35:31.205Z,31.50
2018-08-08T17:37:59.912Z,31.40
2018-08-08T17:40:28.792Z,31.50
2018-08-08T17:42:57.760Z,31.60
2018-08-08T17:45:26.444Z,31.70
2018-08-08T17:47:55.114Z,31.80
2018-08-08T17:50:23.756Z,31.70
2018-08-08T17:52:52.412Z,31.40
2018-08-08T17:55:21.080Z,31.30
2018-08-08T17:57:49.777Z,31.20
2018-08-08T18:00:18.573Z,31.20
2018-08-08T18:02:47.750Z,31.20
2018-08-08T18:05:16.491Z,31.10
2018-08-08T18:07:45.216Z,31.00
2018-08-08T18:10:14.701Z,31.00
2018-08-08T18:12:43.352Z,31.00
2018-08-08T18:15:12.137Z,30.70
2018-08-08T18:17:40.925Z,30.60
2018-08-08T18:20:10.065Z,30.50
2018-08-08T18:22:39.098Z,30.40
2018-08-08T18:25:08.165Z,30.20
2018-08-08T18:27:37.144Z,30.10
2018-08-08T18:30:07.756Z,29.90
2018-08-08T18:32:36.438Z,29.80
2018-08-08T18:35:05.857Z,29.50
2018-08-08T18:37:34.894Z,29.30
2018-08-08T18:40:03.900Z,29.00
2018-08-08T18:42:33.273Z,28.80
2018-08-08T18:45:02.131Z,28.60
2018-08-08T18:47:30.776Z,28.50
2018-08-08T18:49:59.505Z,28.40
2018-08-08T18:52:28.212Z,28.20
2018-08-08T18:54:56.854Z,28.10
2018-08-08T18:57:25.528Z,28.10
2018-08-08T18:59:54.399Z,28.10
2018-08-08T19:02:23.098Z,28.10
2018-08-08T19:04:52.241Z,28.10
2018-08-08T19:07:20.900Z,28.00
2018-08-08T19:09:50.117Z,28.00
2018-08-08T19:12:19.052Z,27.90
2018-08-08T19:14:48.398Z,27.70
2018-08-08T19:17:17.388Z,27.40
2018-08-08T19:19:46.675Z,27.30
2018-08-08T19:22:15.333Z,27.20
2018-08-08T19:24:44.246Z,27.00
2018-08-08T19:27:14.439Z,27.00
2018-08-08T19:29:43.269Z,26.90
2018-08-08T19:32:11.922Z,26.90
2018-08-08T19:34:40.702Z,26.90
2018-08-08T19:37:09.409Z,26.90
2018-08-08T19:39:38.112Z,26.80
2018-08-08T19:42:06.828Z,26.70
2018-08-08T19:44:35.543Z,26.60
2018-08-08T19:47:04.290Z,26.50
2018-08-08T19:49:33.861Z,26.50
2018-08-08T19:52:02.596Z,26.40
2018-08-08T19:54:31.505Z,26.30
2018-08-08T19:57:02.116Z,26.40
2018-08-08T19:59:30.812Z,26.40
2018-08-08T20:01:59.707Z,26.30
2018-08-08T20:04:28.341Z,26.20
2018-08-08T20:06:57.172Z,26.20
2018-08-08T20:09:25.888Z,26.10
2018-08-08T20:11:54.557Z,26.00
2018-08-08T20:14:23.340Z,25.80
2018-08-08T20:16:52.123Z,25.60
2018-08-08T20:19:21.006Z,25.60
2018-08-08T20:21:50.189Z,25.70
2018-08-08T20:24:19.926Z,25.70
2018-08-08T20:26:48.600Z,25.70
2018-08-08T20:29:17.489Z,25.70
2018-08-08T20:31:46.637Z,25.70
2018-08-08T20:34:15.379Z,25.70
2018-08-08T20:36:45.488Z,25.70
2018-08-08T20:39:15.715Z,25.60
2018-08-08T20:41:44.840Z,25.50
2018-08-08T20:44:14.512Z,25.50
2018-08-08T20:46:43.786Z,25.40
2018-08-08T20:49:12.413Z,25.40
2018-08-08T20:51:41.093Z,25.30
2018-08-08T20:54:09.717Z,25.10
2018-08-08T20:56:39.305Z,25.00
2018-08-08T20:59:08.131Z,25.00
2018-08-08T21:01:37.909Z,25.00
2018-08-08T21:04:06.725Z,25.00
2018-08-08T21:06:35.434Z,25.00
2018-08-08T21:09:06.005Z,25.00
2018-08-08T21:11:36.027Z,24.90
2018-08-08T21:14:04.912Z,24.70
2018-08-08T21:16:33.644Z,24.70
2018-08-08T21:19:02.370Z,24.60
2018-08-08T21:21:32.322Z,24.50
2018-08-08T21:24:00.946Z,24.40
2018-08-08T21:26:29.645Z,24.40
2018-08-08T21:28:58.719Z,24.40
2018-08-08T21:31:28.260Z,24.40
2018-08-08T21:33:57.104Z,24.40
2018-08-08T21:36:26.513Z,24.20
2018-08-08T21:38:55.271Z,24.10
2018-08-08T21:41:24.246Z,23.90
2018-08-08T21:43:53.825Z,23.60
2018-08-08T21:46:22.501Z,23.40
2018-08-08T21:48:51.180Z,23.30
2018-08-08T21:51:20.568Z,23.30
2018-08-08T21:54:00.224Z,23.30
2018-08-08T21:56:40.341Z,23.20
2018-08-08T21:59:19.913Z,23.20
2018-08-08T22:17:36.291Z,23.10
2018-08-08T22:20:05.193Z,22.80
2018-08-08T22:22:33.816Z,22.80
2018-08-08T22:25:02.489Z,22.80
2018-08-08T22:27:31.187Z,22.90
2018-08-08T22:30:00.025Z,22.80
2018-08-08T22:32:29.013Z,22.70
2018-08-08T22:34:57.631Z,22.60
2018-08-08T22:37:26.348Z,22.60
2018-08-08T22:39:55.235Z,22.60
2018-08-08T22:42:23.948Z,22.50
2018-08-08T22:44:52.764Z,22.60
2018-08-08T22:47:21.531Z,22.50
2018-08-08T22:49:50.149Z,22.50
2018-08-08T22:52:18.774Z,22.50
2018-08-08T22:54:47.400Z,22.50
2018-08-08T22:57:16.159Z,22.50
2018-08-08T22:59:44.805Z,22.50
2018-08-08T23:02:13.496Z,22.40
2018-08-08T23:04:42.140Z,22.20
2018-08-08T23:07:11.116Z,22.10
2018-08-08T23:09:39.973Z,22.20
2018-08-08T23:12:08.617Z,22.20
2018-08-08T23:14:37.204Z,22.10
2018-08-08T23:17:06.041Z,22.10
2018-08-08T23:19:34.884Z,22.10
2018-08-08T23:22:03.626Z,22.10
2018-08-08T23:24:32.730Z,22.20
2018-08-08T23:27:01.401Z,22.20
2018-08-08T23:29:30.100Z,22.20
2018-08-08T23:31:58.985Z,22.20
2018-08-08T23:34:27.681Z,22.10
2018-08-08T23:36:56.628Z,22.10
2018-08-08T23:39:25.256Z,22.00
2018-08-08T23:41:53.991Z,22.00
2018-08-08T23:44:22.715Z,22.00
2018-08-08T23:46:51.890Z,22.00
2018-08-08T23:49:20.664Z,22.00
2018-08-08T23:51:49.347Z,22.00
2018-08-08T23:54:18.116Z,22.00
2018-08-08T23:56:46.970Z,22.00
2018-08-08T23:59:15.643Z,22.00
